sensor_id;sensor_type;location;lat;lon;timestamp;P1;durP1;ratioP1;P2;durP2;ratioP2
74510;SDS011;62991;50.040;18.400;2023-07-28T00:02:00;3.22;;;1.48;;
74510;SDS011;62991;50.040;18.400;2023-07-28T00:05:01;2.67;;;1.50;;
74510;SDS011;62991;50.040;18.400;2023-07-28T00:08:02;3.67;;;1.52;;
74510;SDS011;62991;50.040;18.400;2023-07-28T00:11:02;3.72;;;1.50;;
74510;SDS011;62991;50.040;18.400;2023-07-28T00:14:03;3.40;;;1.55;;
74510;SDS011;62991;50.040;18.400;2023-07-28T00:17:04;2.92;;;1.50;;
74510;SDS011;62991;50.040;18.400;2023-07-28T00:20:05;4.88;;;1.65;;
74510;SDS011;62991;50.040;18.400;2023-07-28T00:23:06;5.85;;;1.58;;
74510;SDS011;62991;50.040;18.400;2023-07-28T00:26:07;2.67;;;1.23;;
74510;SDS011;62991;50.040;18.400;2023-07-28T00:29:08;2.10;;;1.10;;
74510;SDS011;62991;50.040;18.400;2023-07-28T00:32:08;4.53;;;1.42;;
74510;SDS011;62991;50.040;18.400;2023-07-28T00:35:09;3.17;;;1.15;;
74510;SDS011;62991;50.040;18.400;2023-07-28T00:38:10;2.28;;;1.27;;
74510;SDS011;62991;50.040;18.400;2023-07-28T00:41:10;3.20;;;1.30;;
74510;SDS011;62991;50.040;18.400;2023-07-28T00:44:11;5.85;;;1.30;;
74510;SDS011;62991;50.040;18.400;2023-07-28T00:47:12;4.07;;;1.33;;
74510;SDS011;62991;50.040;18.400;2023-07-28T00:50:13;3.28;;;1.20;;
74510;SDS011;62991;50.040;18.400;2023-07-28T00:53:16;4.35;;;1.40;;
74510;SDS011;62991;50.040;18.400;2023-07-28T00:56:16;2.72;;;1.33;;
74510;SDS011;62991;50.040;18.400;2023-07-28T00:59:18;3.85;;;1.42;;
74510;SDS011;62991;50.040;18.400;2023-07-28T01:02:21;2.83;;;1.40;;
74510;SDS011;62991;50.040;18.400;2023-07-28T01:05:23;2.55;;;1.38;;
74510;SDS011;62991;50.040;18.400;2023-07-28T01:11:54;3.53;;;1.50;;
74510;SDS011;62991;50.040;18.400;2023-07-28T01:14:55;4.63;;;1.40;;
74510;SDS011;62991;50.040;18.400;2023-07-28T01:17:56;2.75;;;1.42;;
74510;SDS011;62991;50.040;18.400;2023-07-28T01:20:57;4.45;;;1.55;;
74510;SDS011;62991;50.040;18.400;2023-07-28T01:24:46;2.50;;;1.40;;
74510;SDS011;62991;50.040;18.400;2023-07-28T01:27:43;5.47;;;1.58;;
74510;SDS011;62991;50.040;18.400;2023-07-28T01:30:44;2.55;;;1.00;;
74510;SDS011;62991;50.040;18.400;2023-07-28T01:33:45;4.72;;;1.20;;
74510;SDS011;62991;50.040;18.400;2023-07-28T01:36:46;3.42;;;1.70;;
74510;SDS011;62991;50.040;18.400;2023-07-28T01:39:47;3.13;;;1.40;;
74510;SDS011;62991;50.040;18.400;2023-07-28T01:42:47;2.80;;;1.42;;
74510;SDS011;62991;50.040;18.400;2023-07-28T01:45:48;2.65;;;1.25;;
74510;SDS011;62991;50.040;18.400;2023-07-28T01:48:49;2.17;;;1.25;;
74510;SDS011;62991;50.040;18.400;2023-07-28T01:51:49;3.17;;;1.40;;
74510;SDS011;62991;50.040;18.400;2023-07-28T01:54:50;3.53;;;1.40;;
74510;SDS011;62991;50.040;18.400;2023-07-28T01:57:53;1.73;;;1.10;;
74510;SDS011;62991;50.040;18.400;2023-07-28T02:00:55;1.98;;;0.95;;
74510;SDS011;62991;50.040;18.400;2023-07-28T02:03:56;2.38;;;1.20;;
74510;SDS011;62991;50.040;18.400;2023-07-28T02:06:56;3.65;;;1.42;;
74510;SDS011;62991;50.040;18.400;2023-07-28T02:09:57;3.58;;;1.50;;
74510;SDS011;62991;50.040;18.400;2023-07-28T02:12:58;4.10;;;1.77;;
74510;SDS011;62991;50.040;18.400;2023-07-28T02:15:58;4.90;;;1.60;;
74510;SDS011;62991;50.040;18.400;2023-07-28T02:18:59;3.50;;;1.35;;
74510;SDS011;62991;50.040;18.400;2023-07-28T02:22:00;2.78;;;1.52;;
74510;SDS011;62991;50.040;18.400;2023-07-28T02:25:00;3.90;;;1.60;;
74510;SDS011;62991;50.040;18.400;2023-07-28T02:28:02;3.20;;;1.50;;
74510;SDS011;62991;50.040;18.400;2023-07-28T02:31:02;2.65;;;1.40;;
74510;SDS011;62991;50.040;18.400;2023-07-28T02:34:03;2.08;;;1.10;;
74510;SDS011;62991;50.040;18.400;2023-07-28T02:37:04;2.63;;;1.30;;
74510;SDS011;62991;50.040;18.400;2023-07-28T02:40:05;2.70;;;1.27;;
74510;SDS011;62991;50.040;18.400;2023-07-28T02:43:06;2.38;;;1.45;;
74510;SDS011;62991;50.040;18.400;2023-07-28T02:46:06;2.97;;;1.10;;
74510;SDS011;62991;50.040;18.400;2023-07-28T02:49:07;2.38;;;1.40;;
74510;SDS011;62991;50.040;18.400;2023-07-28T02:52:08;2.67;;;1.10;;
74510;SDS011;62991;50.040;18.400;2023-07-28T02:55:08;2.88;;;1.20;;
74510;SDS011;62991;50.040;18.400;2023-07-28T02:58:09;2.85;;;1.00;;
74510;SDS011;62991;50.040;18.400;2023-07-28T03:01:10;2.92;;;1.42;;
74510;SDS011;62991;50.040;18.400;2023-07-28T03:04:12;1.60;;;0.90;;
74510;SDS011;62991;50.040;18.400;2023-07-28T03:07:12;2.80;;;1.60;;
74510;SDS011;62991;50.040;18.400;2023-07-28T03:10:13;1.63;;;1.00;;
74510;SDS011;62991;50.040;18.400;2023-07-28T03:13:16;1.45;;;0.90;;
74510;SDS011;62991;50.040;18.400;2023-07-28T03:16:17;5.22;;;1.02;;
74510;SDS011;62991;50.040;18.400;2023-07-28T03:19:17;2.58;;;1.20;;
74510;SDS011;62991;50.040;18.400;2023-07-28T03:22:18;3.40;;;1.35;;
74510;SDS011;62991;50.040;18.400;2023-07-28T03:25:19;3.65;;;1.33;;
74510;SDS011;62991;50.040;18.400;2023-07-28T03:28:19;3.63;;;1.30;;
74510;SDS011;62991;50.040;18.400;2023-07-28T03:31:20;8.18;;;1.52;;
74510;SDS011;62991;50.040;18.400;2023-07-28T03:34:21;4.65;;;1.52;;
74510;SDS011;62991;50.040;18.400;2023-07-28T03:37:21;2.55;;;1.27;;
74510;SDS011;62991;50.040;18.400;2023-07-28T03:40:22;4.03;;;1.30;;
74510;SDS011;62991;50.040;18.400;2023-07-28T03:43:23;2.38;;;1.08;;
74510;SDS011;62991;50.040;18.400;2023-07-28T03:46:23;2.80;;;1.23;;
74510;SDS011;62991;50.040;18.400;2023-07-28T03:49:24;2.88;;;1.40;;
74510;SDS011;62991;50.040;18.400;2023-07-28T03:52:25;2.92;;;1.60;;
74510;SDS011;62991;50.040;18.400;2023-07-28T03:55:25;3.47;;;1.30;;
74510;SDS011;62991;50.040;18.400;2023-07-28T03:58:26;4.47;;;1.40;;
74510;SDS011;62991;50.040;18.400;2023-07-28T04:01:26;3.15;;;1.83;;
74510;SDS011;62991;50.040;18.400;2023-07-28T04:04:27;1.95;;;1.20;;
74510;SDS011;62991;50.040;18.400;2023-07-28T04:07:28;3.08;;;1.55;;
74510;SDS011;62991;50.040;18.400;2023-07-28T04:10:28;3.00;;;1.55;;
74510;SDS011;62991;50.040;18.400;2023-07-28T04:13:29;3.88;;;1.60;;
74510;SDS011;62991;50.040;18.400;2023-07-28T04:16:30;5.93;;;1.67;;
74510;SDS011;62991;50.040;18.400;2023-07-28T04:19:31;4.30;;;1.33;;
74510;SDS011;62991;50.040;18.400;2023-07-28T04:22:31;3.17;;;1.58;;
74510;SDS011;62991;50.040;18.400;2023-07-28T04:25:32;3.38;;;1.55;;
74510;SDS011;62991;50.040;18.400;2023-07-28T04:28:32;2.83;;;1.48;;
74510;SDS011;62991;50.040;18.400;2023-07-28T04:31:33;3.95;;;1.65;;
74510;SDS011;62991;50.040;18.400;2023-07-28T04:34:34;3.35;;;1.70;;
74510;SDS011;62991;50.040;18.400;2023-07-28T04:37:34;5.93;;;1.65;;
74510;SDS011;62991;50.040;18.400;2023-07-28T04:40:35;7.32;;;2.03;;
74510;SDS011;62991;50.040;18.400;2023-07-28T04:43:36;3.10;;;1.88;;
74510;SDS011;62991;50.040;18.400;2023-07-28T04:46:36;3.45;;;1.60;;
74510;SDS011;62991;50.040;18.400;2023-07-28T04:49:37;6.22;;;1.90;;
74510;SDS011;62991;50.040;18.400;2023-07-28T04:52:37;5.50;;;1.98;;
74510;SDS011;62991;50.040;18.400;2023-07-28T04:55:38;4.72;;;1.77;;
74510;SDS011;62991;50.040;18.400;2023-07-28T04:58:39;3.38;;;1.83;;
74510;SDS011;62991;50.040;18.400;2023-07-28T05:01:39;3.00;;;1.50;;
74510;SDS011;62991;50.040;18.400;2023-07-28T05:04:40;3.22;;;1.75;;
74510;SDS011;62991;50.040;18.400;2023-07-28T05:07:41;3.88;;;1.73;;
74510;SDS011;62991;50.040;18.400;2023-07-28T05:10:42;4.85;;;2.13;;
74510;SDS011;62991;50.040;18.400;2023-07-28T05:13:43;2.72;;;1.60;;
74510;SDS011;62991;50.040;18.400;2023-07-28T05:16:44;5.93;;;1.77;;
74510;SDS011;62991;50.040;18.400;2023-07-28T05:19:44;5.70;;;2.03;;
74510;SDS011;62991;50.040;18.400;2023-07-28T05:22:45;7.88;;;2.13;;
74510;SDS011;62991;50.040;18.400;2023-07-28T05:25:46;4.38;;;1.80;;
74510;SDS011;62991;50.040;18.400;2023-07-28T05:28:46;4.10;;;1.98;;
74510;SDS011;62991;50.040;18.400;2023-07-28T05:31:47;4.57;;;2.00;;
74510;SDS011;62991;50.040;18.400;2023-07-28T05:34:48;4.35;;;2.00;;
74510;SDS011;62991;50.040;18.400;2023-07-28T05:37:49;4.63;;;1.92;;
74510;SDS011;62991;50.040;18.400;2023-07-28T05:40:55;3.90;;;1.58;;
74510;SDS011;62991;50.040;18.400;2023-07-28T05:43:57;4.10;;;2.20;;
74510;SDS011;62991;50.040;18.400;2023-07-28T05:46:57;4.53;;;2.03;;
74510;SDS011;62991;50.040;18.400;2023-07-28T05:49:58;3.55;;;1.90;;
74510;SDS011;62991;50.040;18.400;2023-07-28T05:52:59;4.55;;;2.03;;
74510;SDS011;62991;50.040;18.400;2023-07-28T05:56:00;3.65;;;1.77;;
74510;SDS011;62991;50.040;18.400;2023-07-28T05:59:00;4.22;;;1.77;;
74510;SDS011;62991;50.040;18.400;2023-07-28T06:02:01;5.35;;;1.73;;
74510;SDS011;62991;50.040;18.400;2023-07-28T06:05:02;5.20;;;2.53;;
74510;SDS011;62991;50.040;18.400;2023-07-28T06:08:02;4.30;;;2.08;;
74510;SDS011;62991;50.040;18.400;2023-07-28T06:11:04;3.80;;;1.77;;
74510;SDS011;62991;50.040;18.400;2023-07-28T06:14:06;4.57;;;1.90;;
74510;SDS011;62991;50.040;18.400;2023-07-28T06:17:06;4.57;;;2.08;;
74510;SDS011;62991;50.040;18.400;2023-07-28T06:20:08;4.22;;;1.70;;
74510;SDS011;62991;50.040;18.400;2023-07-28T06:23:10;3.92;;;1.80;;
74510;SDS011;62991;50.040;18.400;2023-07-28T06:26:10;4.32;;;2.17;;
74510;SDS011;62991;50.040;18.400;2023-07-28T06:29:11;2.25;;;1.17;;
74510;SDS011;62991;50.040;18.400;2023-07-28T06:32:12;5.03;;;1.80;;
74510;SDS011;62991;50.040;18.400;2023-07-28T06:35:12;2.85;;;1.70;;
74510;SDS011;62991;50.040;18.400;2023-07-28T06:38:13;3.40;;;1.33;;
74510;SDS011;62991;50.040;18.400;2023-07-28T06:41:14;4.75;;;1.48;;
74510;SDS011;62991;50.040;18.400;2023-07-28T06:44:14;2.83;;;1.45;;
74510;SDS011;62991;50.040;18.400;2023-07-28T06:47:15;3.40;;;1.58;;
74510;SDS011;62991;50.040;18.400;2023-07-28T06:50:16;3.63;;;1.55;;
74510;SDS011;62991;50.040;18.400;2023-07-28T06:53:16;2.30;;;1.00;;
74510;SDS011;62991;50.040;18.400;2023-07-28T06:56:17;6.85;;;1.67;;
74510;SDS011;62991;50.040;18.400;2023-07-28T06:59:18;3.70;;;2.25;;
74510;SDS011;62991;50.040;18.400;2023-07-28T07:02:19;2.53;;;1.63;;
74510;SDS011;62991;50.040;18.400;2023-07-28T07:05:19;4.25;;;1.67;;
74510;SDS011;62991;50.040;18.400;2023-07-28T07:08:20;5.03;;;2.08;;
74510;SDS011;62991;50.040;18.400;2023-07-28T07:11:20;4.38;;;2.15;;
74510;SDS011;62991;50.040;18.400;2023-07-28T07:14:21;2.97;;;2.08;;
74510;SDS011;62991;50.040;18.400;2023-07-28T07:17:22;4.15;;;2.17;;
74510;SDS011;62991;50.040;18.400;2023-07-28T07:20:22;4.15;;;2.20;;
74510;SDS011;62991;50.040;18.400;2023-07-28T07:23:23;8.27;;;2.20;;
74510;SDS011;62991;50.040;18.400;2023-07-28T07:26:24;3.75;;;2.08;;
74510;SDS011;62991;50.040;18.400;2023-07-28T07:29:24;4.07;;;2.20;;
74510;SDS011;62991;50.040;18.400;2023-07-28T07:32:25;4.00;;;2.30;;
74510;SDS011;62991;50.040;18.400;2023-07-28T07:35:26;5.13;;;2.40;;
74510;SDS011;62991;50.040;18.400;2023-07-28T07:38:26;4.97;;;2.35;;
74510;SDS011;62991;50.040;18.400;2023-07-28T07:41:27;4.53;;;2.00;;
74510;SDS011;62991;50.040;18.400;2023-07-28T07:44:29;2.97;;;1.50;;
74510;SDS011;62991;50.040;18.400;2023-07-28T07:47:30;3.90;;;1.75;;
74510;SDS011;62991;50.040;18.400;2023-07-28T07:50:30;4.43;;;1.92;;
74510;SDS011;62991;50.040;18.400;2023-07-28T07:53:31;2.83;;;2.25;;
74510;SDS011;62991;50.040;18.400;2023-07-28T07:56:32;4.28;;;1.70;;
74510;SDS011;62991;50.040;18.400;2023-07-28T07:59:32;4.93;;;1.83;;
74510;SDS011;62991;50.040;18.400;2023-07-28T08:02:33;2.80;;;1.77;;
74510;SDS011;62991;50.040;18.400;2023-07-28T08:05:34;4.03;;;2.08;;
74510;SDS011;62991;50.040;18.400;2023-07-28T08:08:35;3.55;;;1.80;;
74510;SDS011;62991;50.040;18.400;2023-07-28T08:11:35;2.92;;;1.55;;
74510;SDS011;62991;50.040;18.400;2023-07-28T08:14:36;3.20;;;1.52;;
74510;SDS011;62991;50.040;18.400;2023-07-28T08:17:37;2.78;;;1.85;;
74510;SDS011;62991;50.040;18.400;2023-07-28T08:20:38;4.72;;;2.10;;
74510;SDS011;62991;50.040;18.400;2023-07-28T08:23:38;2.90;;;1.60;;
74510;SDS011;62991;50.040;18.400;2023-07-28T08:26:39;3.75;;;1.90;;
74510;SDS011;62991;50.040;18.400;2023-07-28T08:29:40;3.58;;;1.90;;
74510;SDS011;62991;50.040;18.400;2023-07-28T08:32:43;1.90;;;0.77;;
74510;SDS011;62991;50.040;18.400;2023-07-28T08:35:44;5.05;;;1.98;;
74510;SDS011;62991;50.040;18.400;2023-07-28T08:38:45;3.72;;;1.77;;
74510;SDS011;62991;50.040;18.400;2023-07-28T08:41:45;3.53;;;1.65;;
74510;SDS011;62991;50.040;18.400;2023-07-28T08:44:46;4.05;;;1.85;;
74510;SDS011;62991;50.040;18.400;2023-07-28T08:47:47;4.80;;;2.30;;
74510;SDS011;62991;50.040;18.400;2023-07-28T08:50:48;4.25;;;2.22;;
74510;SDS011;62991;50.040;18.400;2023-07-28T08:53:48;6.07;;;2.00;;
74510;SDS011;62991;50.040;18.400;2023-07-28T08:56:49;8.50;;;2.05;;
74510;SDS011;62991;50.040;18.400;2023-07-28T08:59:50;7.25;;;2.25;;
74510;SDS011;62991;50.040;18.400;2023-07-28T09:02:51;6.15;;;2.17;;
74510;SDS011;62991;50.040;18.400;2023-07-28T09:05:51;5.22;;;2.22;;
74510;SDS011;62991;50.040;18.400;2023-07-28T09:08:52;5.43;;;2.05;;
74510;SDS011;62991;50.040;18.400;2023-07-28T09:11:53;4.47;;;1.80;;
74510;SDS011;62991;50.040;18.400;2023-07-28T09:14:57;5.50;;;2.20;;
74510;SDS011;62991;50.040;18.400;2023-07-28T09:17:58;5.25;;;1.67;;
74510;SDS011;62991;50.040;18.400;2023-07-28T09:21:00;4.28;;;2.10;;
74510;SDS011;62991;50.040;18.400;2023-07-28T09:24:04;6.40;;;2.03;;
74510;SDS011;62991;50.040;18.400;2023-07-28T09:27:21;4.93;;;2.55;;
74510;SDS011;62991;50.040;18.400;2023-07-28T09:30:24;3.55;;;2.08;;
74510;SDS011;62991;50.040;18.400;2023-07-28T09:33:29;4.95;;;1.92;;
74510;SDS011;62991;50.040;18.400;2023-07-28T09:36:31;4.45;;;2.00;;
74510;SDS011;62991;50.040;18.400;2023-07-28T09:39:31;3.53;;;1.88;;
74510;SDS011;62991;50.040;18.400;2023-07-28T09:42:35;4.03;;;1.85;;
74510;SDS011;62991;50.040;18.400;2023-07-28T09:45:36;3.25;;;1.80;;
74510;SDS011;62991;50.040;18.400;2023-07-28T09:48:38;2.20;;;1.48;;
74510;SDS011;62991;50.040;18.400;2023-07-28T09:51:44;2.92;;;1.65;;
74510;SDS011;62991;50.040;18.400;2023-07-28T09:54:49;2.72;;;1.52;;
74510;SDS011;62991;50.040;18.400;2023-07-28T09:57:55;2.75;;;1.33;;
74510;SDS011;62991;50.040;18.400;2023-07-28T10:01:01;4.85;;;2.30;;
74510;SDS011;62991;50.040;18.400;2023-07-28T10:04:05;2.70;;;1.20;;
74510;SDS011;62991;50.040;18.400;2023-07-28T10:07:07;5.03;;;1.85;;
74510;SDS011;62991;50.040;18.400;2023-07-28T10:10:09;4.22;;;2.00;;
74510;SDS011;62991;50.040;18.400;2023-07-28T10:13:21;4.07;;;1.60;;
74510;SDS011;62991;50.040;18.400;2023-07-28T10:19:52;4.55;;;2.22;;
74510;SDS011;62991;50.040;18.400;2023-07-28T10:22:58;3.70;;;2.20;;
74510;SDS011;62991;50.040;18.400;2023-07-28T10:26:03;4.50;;;2.63;;
74510;SDS011;62991;50.040;18.400;2023-07-28T10:29:08;4.50;;;1.90;;
74510;SDS011;62991;50.040;18.400;2023-07-28T10:32:13;5.47;;;2.10;;
74510;SDS011;62991;50.040;18.400;2023-07-28T10:35:27;3.78;;;1.27;;
74510;SDS011;62991;50.040;18.400;2023-07-28T10:38:32;2.63;;;0.80;;
74510;SDS011;62991;50.040;18.400;2023-07-28T10:41:37;2.90;;;0.85;;
74510;SDS011;62991;50.040;18.400;2023-07-28T10:44:37;4.57;;;1.55;;
74510;SDS011;62991;50.040;18.400;2023-07-28T10:47:38;2.92;;;1.45;;
74510;SDS011;62991;50.040;18.400;2023-07-28T10:50:40;6.30;;;1.65;;
74510;SDS011;62991;50.040;18.400;2023-07-28T10:53:42;3.13;;;1.40;;
74510;SDS011;62991;50.040;18.400;2023-07-28T10:56:43;2.58;;;1.25;;
74510;SDS011;62991;50.040;18.400;2023-07-28T10:59:44;2.42;;;1.35;;
74510;SDS011;62991;50.040;18.400;2023-07-28T11:02:50;1.35;;;0.88;;
74510;SDS011;62991;50.040;18.400;2023-07-28T11:05:51;1.92;;;0.88;;
74510;SDS011;62991;50.040;18.400;2023-07-28T11:08:55;2.10;;;1.27;;
74510;SDS011;62991;50.040;18.400;2023-07-28T11:11:55;1.55;;;0.98;;
74510;SDS011;62991;50.040;18.400;2023-07-28T11:14:56;3.38;;;1.40;;
74510;SDS011;62991;50.040;18.400;2023-07-28T11:17:57;2.83;;;1.30;;
74510;SDS011;62991;50.040;18.400;2023-07-28T11:20:57;2.90;;;1.40;;
74510;SDS011;62991;50.040;18.400;2023-07-28T11:23:59;2.78;;;1.30;;
74510;SDS011;62991;50.040;18.400;2023-07-28T11:27:00;3.60;;;0.98;;
74510;SDS011;62991;50.040;18.400;2023-07-28T11:30:02;10.48;;;1.42;;
74510;SDS011;62991;50.040;18.400;2023-07-28T11:33:03;2.00;;;1.10;;
74510;SDS011;62991;50.040;18.400;2023-07-28T11:36:04;0.90;;;0.75;;
74510;SDS011;62991;50.040;18.400;2023-07-28T11:39:06;1.92;;;1.10;;
74510;SDS011;62991;50.040;18.400;2023-07-28T11:42:07;2.00;;;1.10;;
74510;SDS011;62991;50.040;18.400;2023-07-28T11:45:09;6.70;;;1.30;;
74510;SDS011;62991;50.040;18.400;2023-07-28T11:48:12;2.30;;;1.30;;
74510;SDS011;62991;50.040;18.400;2023-07-28T11:51:15;3.08;;;1.38;;
74510;SDS011;62991;50.040;18.400;2023-07-28T11:54:17;2.67;;;1.48;;
74510;SDS011;62991;50.040;18.400;2023-07-28T11:57:21;2.50;;;1.40;;
74510;SDS011;62991;50.040;18.400;2023-07-28T12:00:29;3.40;;;1.30;;
74510;SDS011;62991;50.040;18.400;2023-07-28T12:03:36;2.40;;;1.30;;
74510;SDS011;62991;50.040;18.400;2023-07-28T12:06:59;4.53;;;1.60;;
74510;SDS011;62991;50.040;18.400;2023-07-28T12:10:06;2.42;;;1.02;;
74510;SDS011;62991;50.040;18.400;2023-07-28T12:13:09;4.05;;;1.20;;
74510;SDS011;62991;50.040;18.400;2023-07-28T12:16:10;2.33;;;1.10;;
74510;SDS011;62991;50.040;18.400;2023-07-28T12:19:31;2.38;;;1.10;;
74510;SDS011;62991;50.040;18.400;2023-07-28T12:22:32;2.05;;;1.10;;
74510;SDS011;62991;50.040;18.400;2023-07-28T12:25:32;4.85;;;1.40;;
74510;SDS011;62991;50.040;18.400;2023-07-28T12:28:33;2.70;;;1.10;;
74510;SDS011;62991;50.040;18.400;2023-07-28T12:31:34;1.80;;;1.10;;
74510;SDS011;62991;50.040;18.400;2023-07-28T12:34:34;2.97;;;1.40;;
74510;SDS011;62991;50.040;18.400;2023-07-28T12:37:35;2.00;;;1.08;;
74510;SDS011;62991;50.040;18.400;2023-07-28T12:40:36;1.45;;;1.08;;
74510;SDS011;62991;50.040;18.400;2023-07-28T12:43:36;2.28;;;1.30;;
74510;SDS011;62991;50.040;18.400;2023-07-28T12:46:37;2.35;;;1.30;;
74510;SDS011;62991;50.040;18.400;2023-07-28T12:49:38;2.58;;;1.33;;
74510;SDS011;62991;50.040;18.400;2023-07-28T12:52:40;3.13;;;1.80;;
74510;SDS011;62991;50.040;18.400;2023-07-28T12:55:40;1.88;;;1.02;;
74510;SDS011;62991;50.040;18.400;2023-07-28T12:58:41;2.55;;;1.40;;
74510;SDS011;62991;50.040;18.400;2023-07-28T13:01:41;3.10;;;1.85;;
74510;SDS011;62991;50.040;18.400;2023-07-28T13:04:42;4.63;;;1.70;;
74510;SDS011;62991;50.040;18.400;2023-07-28T13:07:43;3.85;;;1.35;;
74510;SDS011;62991;50.040;18.400;2023-07-28T13:10:43;1.90;;;1.13;;
74510;SDS011;62991;50.040;18.400;2023-07-28T13:13:44;2.45;;;1.30;;
74510;SDS011;62991;50.040;18.400;2023-07-28T13:16:45;2.60;;;1.27;;
74510;SDS011;62991;50.040;18.400;2023-07-28T13:19:46;2.42;;;1.60;;
74510;SDS011;62991;50.040;18.400;2023-07-28T13:22:46;2.75;;;1.00;;
74510;SDS011;62991;50.040;18.400;2023-07-28T13:25:47;2.08;;;1.10;;
74510;SDS011;62991;50.040;18.400;2023-07-28T13:28:47;2.60;;;1.30;;
74510;SDS011;62991;50.040;18.400;2023-07-28T13:31:48;2.10;;;1.17;;
74510;SDS011;62991;50.040;18.400;2023-07-28T13:34:49;1.90;;;1.10;;
74510;SDS011;62991;50.040;18.400;2023-07-28T13:37:50;2.17;;;1.40;;
74510;SDS011;62991;50.040;18.400;2023-07-28T13:40:50;1.92;;;1.20;;
74510;SDS011;62991;50.040;18.400;2023-07-28T13:43:51;1.75;;;0.88;;
74510;SDS011;62991;50.040;18.400;2023-07-28T13:46:52;3.47;;;1.40;;
74510;SDS011;62991;50.040;18.400;2023-07-28T13:49:53;2.47;;;1.48;;
74510;SDS011;62991;50.040;18.400;2023-07-28T13:52:53;2.15;;;1.30;;
74510;SDS011;62991;50.040;18.400;2023-07-28T13:55:54;2.35;;;1.27;;
74510;SDS011;62991;50.040;18.400;2023-07-28T13:58:55;2.20;;;1.20;;
74510;SDS011;62991;50.040;18.400;2023-07-28T14:01:56;2.80;;;0.70;;
74510;SDS011;62991;50.040;18.400;2023-07-28T14:04:58;2.92;;;1.30;;
74510;SDS011;62991;50.040;18.400;2023-07-28T14:07:58;1.02;;;0.73;;
74510;SDS011;62991;50.040;18.400;2023-07-28T14:10:59;1.08;;;0.80;;
74510;SDS011;62991;50.040;18.400;2023-07-28T14:14:00;2.72;;;1.13;;
74510;SDS011;62991;50.040;18.400;2023-07-28T14:17:01;4.20;;;1.27;;
74510;SDS011;62991;50.040;18.400;2023-07-28T14:20:01;1.30;;;0.88;;
74510;SDS011;62991;50.040;18.400;2023-07-28T14:23:07;2.78;;;1.45;;
74510;SDS011;62991;50.040;18.400;2023-07-28T14:26:24;2.55;;;1.25;;
74510;SDS011;62991;50.040;18.400;2023-07-28T14:29:25;2.55;;;1.10;;
74510;SDS011;62991;50.040;18.400;2023-07-28T14:32:26;1.90;;;1.13;;
74510;SDS011;62991;50.040;18.400;2023-07-28T14:35:27;3.13;;;1.13;;
74510;SDS011;62991;50.040;18.400;2023-07-28T14:38:28;2.42;;;1.10;;
74510;SDS011;62991;50.040;18.400;2023-07-28T14:41:28;1.45;;;0.90;;
74510;SDS011;62991;50.040;18.400;2023-07-28T14:44:29;5.22;;;1.70;;
74510;SDS011;62991;50.040;18.400;2023-07-28T14:47:30;3.55;;;1.30;;
74510;SDS011;62991;50.040;18.400;2023-07-28T14:50:30;1.95;;;1.30;;
74510;SDS011;62991;50.040;18.400;2023-07-28T14:56:32;2.88;;;1.33;;
74510;SDS011;62991;50.040;18.400;2023-07-28T14:59:32;2.97;;;1.25;;
74510;SDS011;62991;50.040;18.400;2023-07-28T15:02:33;2.40;;;1.27;;
74510;SDS011;62991;50.040;18.400;2023-07-28T15:05:34;2.08;;;1.00;;
74510;SDS011;62991;50.040;18.400;2023-07-28T15:08:34;2.83;;;1.20;;
74510;SDS011;62991;50.040;18.400;2023-07-28T15:11:35;1.85;;;1.05;;
74510;SDS011;62991;50.040;18.400;2023-07-28T15:14:36;2.92;;;1.30;;
74510;SDS011;62991;50.040;18.400;2023-07-28T15:17:36;4.20;;;1.30;;
74510;SDS011;62991;50.040;18.400;2023-07-28T15:20:37;1.90;;;1.15;;
74510;SDS011;62991;50.040;18.400;2023-07-28T15:23:38;3.45;;;1.40;;
74510;SDS011;62991;50.040;18.400;2023-07-28T15:26:39;1.58;;;1.10;;
74510;SDS011;62991;50.040;18.400;2023-07-28T15:29:39;3.90;;;1.50;;
74510;SDS011;62991;50.040;18.400;2023-07-28T15:32:40;2.80;;;1.52;;
74510;SDS011;62991;50.040;18.400;2023-07-28T15:35:41;1.70;;;1.10;;
74510;SDS011;62991;50.040;18.400;2023-07-28T15:38:41;2.97;;;1.27;;
74510;SDS011;62991;50.040;18.400;2023-07-28T15:41:42;4.10;;;1.92;;
74510;SDS011;62991;50.040;18.400;2023-07-28T15:44:43;3.28;;;2.03;;
74510;SDS011;62991;50.040;18.400;2023-07-28T15:47:43;2.30;;;1.40;;
74510;SDS011;62991;50.040;18.400;2023-07-28T15:50:44;2.53;;;1.40;;
74510;SDS011;62991;50.040;18.400;2023-07-28T15:53:45;4.50;;;1.50;;
74510;SDS011;62991;50.040;18.400;2023-07-28T15:56:45;6.45;;;1.30;;
74510;SDS011;62991;50.040;18.400;2023-07-28T15:59:46;3.45;;;1.13;;
74510;SDS011;62991;50.040;18.400;2023-07-28T16:02:47;4.97;;;1.20;;
74510;SDS011;62991;50.040;18.400;2023-07-28T16:05:47;2.08;;;1.10;;
74510;SDS011;62991;50.040;18.400;2023-07-28T16:08:48;3.45;;;1.45;;
74510;SDS011;62991;50.040;18.400;2023-07-28T16:11:49;2.83;;;1.42;;
74510;SDS011;62991;50.040;18.400;2023-07-28T16:14:49;1.75;;;1.13;;
74510;SDS011;62991;50.040;18.400;2023-07-28T16:17:50;1.85;;;1.02;;
74510;SDS011;62991;50.040;18.400;2023-07-28T16:20:51;2.33;;;1.20;;
74510;SDS011;62991;50.040;18.400;2023-07-28T16:23:51;2.38;;;1.23;;
74510;SDS011;62991;50.040;18.400;2023-07-28T16:26:52;2.17;;;1.25;;
74510;SDS011;62991;50.040;18.400;2023-07-28T16:29:53;3.40;;;1.35;;
74510;SDS011;62991;50.040;18.400;2023-07-28T16:32:54;1.77;;;1.10;;
74510;SDS011;62991;50.040;18.400;2023-07-28T16:35:54;1.67;;;1.08;;
74510;SDS011;62991;50.040;18.400;2023-07-28T16:38:55;2.95;;;1.48;;
74510;SDS011;62991;50.040;18.400;2023-07-28T16:41:56;2.28;;;1.23;;
74510;SDS011;62991;50.040;18.400;2023-07-28T16:44:56;3.35;;;1.35;;
74510;SDS011;62991;50.040;18.400;2023-07-28T16:47:57;2.28;;;1.13;;
74510;SDS011;62991;50.040;18.400;2023-07-28T16:50:58;3.58;;;1.13;;
74510;SDS011;62991;50.040;18.400;2023-07-28T16:53:59;1.52;;;0.75;;
74510;SDS011;62991;50.040;18.400;2023-07-28T16:57:00;2.15;;;1.10;;
74510;SDS011;62991;50.040;18.400;2023-07-28T17:00:01;1.38;;;0.88;;
74510;SDS011;62991;50.040;18.400;2023-07-28T17:03:02;3.08;;;1.13;;
74510;SDS011;62991;50.040;18.400;2023-07-28T17:06:03;2.17;;;1.33;;
74510;SDS011;62991;50.040;18.400;2023-07-28T17:09:05;2.80;;;1.23;;
74510;SDS011;62991;50.040;18.400;2023-07-28T17:12:05;2.75;;;1.20;;
74510;SDS011;62991;50.040;18.400;2023-07-28T17:15:06;3.42;;;1.30;;
74510;SDS011;62991;50.040;18.400;2023-07-28T17:18:08;2.72;;;1.65;;
74510;SDS011;62991;50.040;18.400;2023-07-28T17:21:09;3.58;;;1.20;;
74510;SDS011;62991;50.040;18.400;2023-07-28T17:24:10;3.08;;;1.40;;
74510;SDS011;62991;50.040;18.400;2023-07-28T17:27:10;2.45;;;1.20;;
74510;SDS011;62991;50.040;18.400;2023-07-28T17:30:11;2.22;;;1.30;;
74510;SDS011;62991;50.040;18.400;2023-07-28T17:33:13;2.67;;;1.40;;
74510;SDS011;62991;50.040;18.400;2023-07-28T17:36:13;2.95;;;1.50;;
74510;SDS011;62991;50.040;18.400;2023-07-28T17:39:14;3.53;;;1.60;;
74510;SDS011;62991;50.040;18.400;2023-07-28T17:42:25;5.75;;;1.50;;
74510;SDS011;62991;50.040;18.400;2023-07-28T17:45:27;3.58;;;2.10;;
74510;SDS011;62991;50.040;18.400;2023-07-28T17:48:27;3.13;;;1.80;;
74510;SDS011;62991;50.040;18.400;2023-07-28T17:51:30;3.25;;;2.08;;
74510;SDS011;62991;50.040;18.400;2023-07-28T17:54:31;3.35;;;1.70;;
74510;SDS011;62991;50.040;18.400;2023-07-28T17:57:32;3.33;;;1.88;;
74510;SDS011;62991;50.040;18.400;2023-07-28T18:00:33;3.45;;;2.22;;
74510;SDS011;62991;50.040;18.400;2023-07-28T18:03:33;6.47;;;2.40;;
74510;SDS011;62991;50.040;18.400;2023-07-28T18:06:34;3.72;;;1.80;;